Paauilo, Hawaii
Current Conditions -  °F | °C
As of 10:56 AM on Wednesday 26 Nov 2014 (Local Time) from PHSF Reporting Station
Clear Clear  
Wind Chill: 68°   Ceiling: Unl
Heat Index: 68°   Visibility: 10mi
Dew Point: 39°   Wind: 8mph
Humidity: 36%   Direction: 260°W
Pressure: 30.36"   Gusts: NA
Location:  20.03°N, 155.36°W
Report Text: PHSF 262056Z AUTO 26007KT 10SM CLR 20/04 A3036 RMK AO2 SLP172 T01980041 50000 $
Loading
Personal Weather Stations






























Interactive Weather Map New forecast layout! Learn more

10-Day Weather Forecast

Advertisements
Track Severe Weather on mobile